sensor_id;sensor_type;location;lat;lon;timestamp;P1;durP1;ratioP1;P2;durP2;ratioP2
17850;SDS011;9051;51.548;14.348;2023-02-01T00:00:53;9.67;;;2.57;;
17850;SDS011;9051;51.548;14.348;2023-02-01T00:03:25;8.83;;;2.57;;
17850;SDS011;9051;51.548;14.348;2023-02-01T00:05:57;10.40;;;2.43;;
17850;SDS011;9051;51.548;14.348;2023-02-01T00:08:30;11.23;;;2.60;;
17850;SDS011;9051;51.548;14.348;2023-02-01T00:11:04;6.03;;;1.90;;
17850;SDS011;9051;51.548;14.348;2023-02-01T00:13:38;9.80;;;2.20;;
17850;SDS011;9051;51.548;14.348;2023-02-01T00:16:12;7.57;;;2.73;;
17850;SDS011;9051;51.548;14.348;2023-02-01T00:18:47;7.77;;;2.60;;
17850;SDS011;9051;51.548;14.348;2023-02-01T00:21:20;7.53;;;2.47;;
17850;SDS011;9051;51.548;14.348;2023-02-01T00:23:52;8.63;;;2.33;;
17850;SDS011;9051;51.548;14.348;2023-02-01T00:26:27;11.67;;;2.60;;
17850;SDS011;9051;51.548;14.348;2023-02-01T00:29:04;8.53;;;2.47;;
17850;SDS011;9051;51.548;14.348;2023-02-01T00:31:38;11.33;;;2.40;;
17850;SDS011;9051;51.548;14.348;2023-02-01T00:34:10;9.43;;;2.80;;
17850;SDS011;9051;51.548;14.348;2023-02-01T00:36:44;8.97;;;2.67;;
17850;SDS011;9051;51.548;14.348;2023-02-01T00:39:16;8.53;;;2.27;;
17850;SDS011;9051;51.548;14.348;2023-02-01T00:41:50;7.03;;;2.30;;
17850;SDS011;9051;51.548;14.348;2023-02-01T00:44:22;8.93;;;2.60;;
17850;SDS011;9051;51.548;14.348;2023-02-01T00:46:54;11.23;;;2.60;;
17850;SDS011;9051;51.548;14.348;2023-02-01T00:49:26;10.83;;;2.50;;
17850;SDS011;9051;51.548;14.348;2023-02-01T00:51:58;10.23;;;2.70;;
17850;SDS011;9051;51.548;14.348;2023-02-01T00:54:30;8.87;;;2.50;;
17850;SDS011;9051;51.548;14.348;2023-02-01T00:57:05;6.27;;;2.07;;
17850;SDS011;9051;51.548;14.348;2023-02-01T00:59:37;5.53;;;2.10;;
17850;SDS011;9051;51.548;14.348;2023-02-01T01:02:09;8.70;;;2.73;;
17850;SDS011;9051;51.548;14.348;2023-02-01T01:04:44;7.60;;;2.57;;
17850;SDS011;9051;51.548;14.348;2023-02-01T01:07:16;11.23;;;2.57;;
17850;SDS011;9051;51.548;14.348;2023-02-01T01:09:49;7.27;;;2.23;;
17850;SDS011;9051;51.548;14.348;2023-02-01T01:12:22;7.40;;;2.63;;
17850;SDS011;9051;51.548;14.348;2023-02-01T01:14:54;7.43;;;2.23;;
17850;SDS011;9051;51.548;14.348;2023-02-01T01:17:26;11.07;;;2.57;;
17850;SDS011;9051;51.548;14.348;2023-02-01T01:19:59;9.30;;;2.77;;
17850;SDS011;9051;51.548;14.348;2023-02-01T01:22:31;9.00;;;2.37;;
17850;SDS011;9051;51.548;14.348;2023-02-01T01:25:03;11.63;;;2.60;;
17850;SDS011;9051;51.548;14.348;2023-02-01T01:27:37;13.53;;;2.87;;
17850;SDS011;9051;51.548;14.348;2023-02-01T01:30:10;11.10;;;2.23;;
17850;SDS011;9051;51.548;14.348;2023-02-01T01:32:44;11.63;;;2.70;;
17850;SDS011;9051;51.548;14.348;2023-02-01T01:35:16;11.90;;;3.07;;
17850;SDS011;9051;51.548;14.348;2023-02-01T01:37:49;15.37;;;2.70;;
17850;SDS011;9051;51.548;14.348;2023-02-01T01:40:21;9.57;;;2.80;;
17850;SDS011;9051;51.548;14.348;2023-02-01T01:42:55;9.23;;;2.20;;
17850;SDS011;9051;51.548;14.348;2023-02-01T01:45:28;12.13;;;3.07;;
17850;SDS011;9051;51.548;14.348;2023-02-01T01:48:03;8.33;;;2.47;;
17850;SDS011;9051;51.548;14.348;2023-02-01T01:50:41;10.40;;;2.83;;
17850;SDS011;9051;51.548;14.348;2023-02-01T01:53:19;8.57;;;2.10;;
17850;SDS011;9051;51.548;14.348;2023-02-01T01:55:55;10.57;;;3.10;;
17850;SDS011;9051;51.548;14.348;2023-02-01T01:58:29;7.07;;;1.70;;
17850;SDS011;9051;51.548;14.348;2023-02-01T02:01:04;8.30;;;2.47;;
17850;SDS011;9051;51.548;14.348;2023-02-01T02:03:37;6.93;;;2.37;;
17850;SDS011;9051;51.548;14.348;2023-02-01T02:06:15;8.87;;;2.37;;
17850;SDS011;9051;51.548;14.348;2023-02-01T02:08:55;9.57;;;3.07;;
17850;SDS011;9051;51.548;14.348;2023-02-01T02:11:27;10.00;;;2.40;;
17850;SDS011;9051;51.548;14.348;2023-02-01T02:14:00;7.63;;;2.17;;
17850;SDS011;9051;51.548;14.348;2023-02-01T02:16:37;12.03;;;2.77;;
17850;SDS011;9051;51.548;14.348;2023-02-01T02:22:45;11.27;;;2.60;;
17850;SDS011;9051;51.548;14.348;2023-02-01T02:29:11;8.10;;;2.40;;
17850;SDS011;9051;51.548;14.348;2023-02-01T02:32:34;8.20;;;2.20;;
17850;SDS011;9051;51.548;14.348;2023-02-01T02:35:35;7.20;;;2.17;;
17850;SDS011;9051;51.548;14.348;2023-02-01T02:38:15;6.70;;;2.30;;
17850;SDS011;9051;51.548;14.348;2023-02-01T02:40:56;8.70;;;2.23;;
17850;SDS011;9051;51.548;14.348;2023-02-01T02:43:37;8.07;;;2.30;;
17850;SDS011;9051;51.548;14.348;2023-02-01T02:46:48;7.70;;;2.43;;
17850;SDS011;9051;51.548;14.348;2023-02-01T02:49:42;8.33;;;2.07;;
17850;SDS011;9051;51.548;14.348;2023-02-01T02:52:44;9.50;;;2.00;;
17850;SDS011;9051;51.548;14.348;2023-02-01T02:55:37;6.33;;;2.30;;
17850;SDS011;9051;51.548;14.348;2023-02-01T02:58:10;11.03;;;3.07;;
17850;SDS011;9051;51.548;14.348;2023-02-01T03:01:02;5.37;;;2.30;;
17850;SDS011;9051;51.548;14.348;2023-02-01T03:03:53;6.30;;;2.00;;
17850;SDS011;9051;51.548;14.348;2023-02-01T03:06:41;5.10;;;2.13;;
17850;SDS011;9051;51.548;14.348;2023-02-01T03:09:16;8.13;;;2.23;;
17850;SDS011;9051;51.548;14.348;2023-02-01T03:11:54;6.47;;;2.50;;
17850;SDS011;9051;51.548;14.348;2023-02-01T03:14:48;5.00;;;2.23;;
17850;SDS011;9051;51.548;14.348;2023-02-01T03:17:27;10.13;;;2.30;;
17850;SDS011;9051;51.548;14.348;2023-02-01T03:20:04;7.27;;;2.43;;
17850;SDS011;9051;51.548;14.348;2023-02-01T03:22:39;7.93;;;2.60;;
17850;SDS011;9051;51.548;14.348;2023-02-01T03:25:17;5.63;;;2.40;;
17850;SDS011;9051;51.548;14.348;2023-02-01T03:27:55;7.67;;;2.43;;
17850;SDS011;9051;51.548;14.348;2023-02-01T03:30:33;5.63;;;2.30;;
17850;SDS011;9051;51.548;14.348;2023-02-01T03:33:09;7.17;;;2.50;;
17850;SDS011;9051;51.548;14.348;2023-02-01T03:35:55;7.03;;;2.40;;
17850;SDS011;9051;51.548;14.348;2023-02-01T03:38:32;6.53;;;2.07;;
17850;SDS011;9051;51.548;14.348;2023-02-01T03:41:15;10.70;;;2.33;;
17850;SDS011;9051;51.548;14.348;2023-02-01T03:43:54;7.10;;;2.90;;
17850;SDS011;9051;51.548;14.348;2023-02-01T03:46:33;7.83;;;2.50;;
17850;SDS011;9051;51.548;14.348;2023-02-01T03:49:09;5.80;;;2.23;;
17850;SDS011;9051;51.548;14.348;2023-02-01T03:51:44;7.70;;;2.40;;
17850;SDS011;9051;51.548;14.348;2023-02-01T03:54:16;5.57;;;2.00;;
17850;SDS011;9051;51.548;14.348;2023-02-01T03:56:51;4.47;;;2.07;;
17850;SDS011;9051;51.548;14.348;2023-02-01T03:59:27;7.60;;;2.40;;
17850;SDS011;9051;51.548;14.348;2023-02-01T04:01:59;5.40;;;2.20;;
17850;SDS011;9051;51.548;14.348;2023-02-01T04:04:31;5.43;;;2.30;;
17850;SDS011;9051;51.548;14.348;2023-02-01T04:07:04;8.27;;;2.87;;
17850;SDS011;9051;51.548;14.348;2023-02-01T04:09:36;9.77;;;2.57;;
17850;SDS011;9051;51.548;14.348;2023-02-01T04:12:10;6.93;;;2.13;;
17850;SDS011;9051;51.548;14.348;2023-02-01T04:14:42;8.23;;;2.57;;
17850;SDS011;9051;51.548;14.348;2023-02-01T04:17:14;8.40;;;2.73;;
17850;SDS011;9051;51.548;14.348;2023-02-01T04:19:46;6.87;;;2.60;;
17850;SDS011;9051;51.548;14.348;2023-02-01T04:22:18;7.17;;;2.60;;
17850;SDS011;9051;51.548;14.348;2023-02-01T04:24:50;6.97;;;2.77;;
17850;SDS011;9051;51.548;14.348;2023-02-01T04:27:23;8.33;;;2.73;;
17850;SDS011;9051;51.548;14.348;2023-02-01T04:29:55;7.47;;;2.50;;
17850;SDS011;9051;51.548;14.348;2023-02-01T04:32:27;6.57;;;2.40;;
17850;SDS011;9051;51.548;14.348;2023-02-01T04:34:59;7.20;;;2.60;;
17850;SDS011;9051;51.548;14.348;2023-02-01T04:37:31;9.20;;;2.87;;
17850;SDS011;9051;51.548;14.348;2023-02-01T04:40:03;5.47;;;2.23;;
17850;SDS011;9051;51.548;14.348;2023-02-01T04:42:38;7.13;;;2.33;;
17850;SDS011;9051;51.548;14.348;2023-02-01T04:45:10;6.63;;;2.40;;
17850;SDS011;9051;51.548;14.348;2023-02-01T04:47:42;7.83;;;2.30;;
17850;SDS011;9051;51.548;14.348;2023-02-01T04:50:14;8.70;;;3.17;;
17850;SDS011;9051;51.548;14.348;2023-02-01T04:52:46;6.23;;;2.03;;
17850;SDS011;9051;51.548;14.348;2023-02-01T04:55:18;10.17;;;2.93;;
17850;SDS011;9051;51.548;14.348;2023-02-01T04:57:51;7.87;;;2.80;;
17850;SDS011;9051;51.548;14.348;2023-02-01T05:00:24;7.50;;;2.40;;
17850;SDS011;9051;51.548;14.348;2023-02-01T05:02:55;6.47;;;2.60;;
17850;SDS011;9051;51.548;14.348;2023-02-01T05:05:28;8.43;;;2.80;;
17850;SDS011;9051;51.548;14.348;2023-02-01T05:08:00;7.23;;;2.53;;
17850;SDS011;9051;51.548;14.348;2023-02-01T05:10:32;9.17;;;2.80;;
17850;SDS011;9051;51.548;14.348;2023-02-01T05:13:05;5.10;;;2.47;;
17850;SDS011;9051;51.548;14.348;2023-02-01T05:15:55;6.80;;;3.00;;
17850;SDS011;9051;51.548;14.348;2023-02-01T05:18:27;8.00;;;2.60;;
17850;SDS011;9051;51.548;14.348;2023-02-01T05:20:59;6.23;;;2.20;;
17850;SDS011;9051;51.548;14.348;2023-02-01T05:23:32;10.33;;;2.60;;
17850;SDS011;9051;51.548;14.348;2023-02-01T05:26:24;14.67;;;3.00;;
17850;SDS011;9051;51.548;14.348;2023-02-01T05:28:57;10.00;;;2.73;;
17850;SDS011;9051;51.548;14.348;2023-02-01T05:31:29;8.27;;;2.70;;
17850;SDS011;9051;51.548;14.348;2023-02-01T05:34:01;6.60;;;2.40;;
17850;SDS011;9051;51.548;14.348;2023-02-01T05:36:34;10.53;;;2.70;;
17850;SDS011;9051;51.548;14.348;2023-02-01T05:39:06;7.90;;;2.63;;
17850;SDS011;9051;51.548;14.348;2023-02-01T05:41:37;7.83;;;2.50;;
17850;SDS011;9051;51.548;14.348;2023-02-01T05:44:11;10.20;;;3.27;;
17850;SDS011;9051;51.548;14.348;2023-02-01T05:46:43;8.17;;;2.30;;
17850;SDS011;9051;51.548;14.348;2023-02-01T05:49:15;10.33;;;3.10;;
17850;SDS011;9051;51.548;14.348;2023-02-01T05:51:47;6.17;;;2.53;;
17850;SDS011;9051;51.548;14.348;2023-02-01T05:54:19;8.57;;;2.80;;
17850;SDS011;9051;51.548;14.348;2023-02-01T05:56:51;8.93;;;3.07;;
17850;SDS011;9051;51.548;14.348;2023-02-01T05:59:24;9.80;;;3.10;;
17850;SDS011;9051;51.548;14.348;2023-02-01T06:01:56;7.30;;;2.73;;
17850;SDS011;9051;51.548;14.348;2023-02-01T06:04:28;6.00;;;2.87;;
17850;SDS011;9051;51.548;14.348;2023-02-01T06:07:00;8.30;;;2.93;;
17850;SDS011;9051;51.548;14.348;2023-02-01T06:09:32;11.00;;;2.87;;
17850;SDS011;9051;51.548;14.348;2023-02-01T06:12:04;9.27;;;3.57;;
17850;SDS011;9051;51.548;14.348;2023-02-01T06:14:38;10.30;;;3.13;;
17850;SDS011;9051;51.548;14.348;2023-02-01T06:17:11;6.83;;;3.03;;
17850;SDS011;9051;51.548;14.348;2023-02-01T06:19:43;9.47;;;3.00;;
17850;SDS011;9051;51.548;14.348;2023-02-01T06:22:15;5.97;;;2.63;;
17850;SDS011;9051;51.548;14.348;2023-02-01T06:24:47;8.27;;;2.90;;
17850;SDS011;9051;51.548;14.348;2023-02-01T06:27:19;12.60;;;3.10;;
17850;SDS011;9051;51.548;14.348;2023-02-01T06:29:52;10.23;;;2.97;;
17850;SDS011;9051;51.548;14.348;2023-02-01T06:32:25;9.27;;;3.20;;
17850;SDS011;9051;51.548;14.348;2023-02-01T06:34:57;9.83;;;3.17;;
17850;SDS011;9051;51.548;14.348;2023-02-01T06:37:30;9.17;;;3.53;;
17850;SDS011;9051;51.548;14.348;2023-02-01T06:40:02;10.50;;;3.00;;
17850;SDS011;9051;51.548;14.348;2023-02-01T06:42:35;11.37;;;3.30;;
17850;SDS011;9051;51.548;14.348;2023-02-01T06:45:09;11.00;;;4.17;;
17850;SDS011;9051;51.548;14.348;2023-02-01T06:47:41;9.70;;;2.93;;
17850;SDS011;9051;51.548;14.348;2023-02-01T06:50:13;9.40;;;3.23;;
17850;SDS011;9051;51.548;14.348;2023-02-01T06:52:46;11.37;;;2.93;;
17850;SDS011;9051;51.548;14.348;2023-02-01T06:55:18;10.63;;;3.00;;
17850;SDS011;9051;51.548;14.348;2023-02-01T06:57:52;8.70;;;3.60;;
17850;SDS011;9051;51.548;14.348;2023-02-01T07:00:27;9.33;;;2.93;;
17850;SDS011;9051;51.548;14.348;2023-02-01T07:02:59;8.70;;;3.20;;
17850;SDS011;9051;51.548;14.348;2023-02-01T07:05:32;11.07;;;3.63;;
17850;SDS011;9051;51.548;14.348;2023-02-01T07:08:04;8.23;;;3.00;;
17850;SDS011;9051;51.548;14.348;2023-02-01T07:10:36;10.90;;;3.37;;
17850;SDS011;9051;51.548;14.348;2023-02-01T07:13:08;14.70;;;3.57;;
17850;SDS011;9051;51.548;14.348;2023-02-01T07:15:41;11.20;;;3.00;;
17850;SDS011;9051;51.548;14.348;2023-02-01T07:18:13;9.73;;;3.77;;
17850;SDS011;9051;51.548;14.348;2023-02-01T07:20:49;9.77;;;2.80;;
17850;SDS011;9051;51.548;14.348;2023-02-01T07:23:22;9.87;;;3.30;;
17850;SDS011;9051;51.548;14.348;2023-02-01T07:25:55;12.53;;;3.87;;
17850;SDS011;9051;51.548;14.348;2023-02-01T07:28:29;10.70;;;2.97;;
17850;SDS011;9051;51.548;14.348;2023-02-01T07:31:03;9.60;;;2.90;;
17850;SDS011;9051;51.548;14.348;2023-02-01T07:33:36;11.83;;;2.70;;
17850;SDS011;9051;51.548;14.348;2023-02-01T07:36:10;10.20;;;3.20;;
17850;SDS011;9051;51.548;14.348;2023-02-01T07:38:44;6.87;;;2.77;;
17850;SDS011;9051;51.548;14.348;2023-02-01T07:41:17;10.13;;;3.00;;
17850;SDS011;9051;51.548;14.348;2023-02-01T07:43:49;8.93;;;3.20;;
17850;SDS011;9051;51.548;14.348;2023-02-01T07:46:25;8.03;;;2.73;;
17850;SDS011;9051;51.548;14.348;2023-02-01T07:48:57;12.17;;;3.33;;
17850;SDS011;9051;51.548;14.348;2023-02-01T07:51:29;12.33;;;3.33;;
17850;SDS011;9051;51.548;14.348;2023-02-01T07:54:01;11.90;;;3.30;;
17850;SDS011;9051;51.548;14.348;2023-02-01T07:56:33;10.13;;;3.43;;
17850;SDS011;9051;51.548;14.348;2023-02-01T07:59:05;8.90;;;3.07;;
17850;SDS011;9051;51.548;14.348;2023-02-01T08:01:39;8.73;;;3.03;;
17850;SDS011;9051;51.548;14.348;2023-02-01T08:04:10;10.73;;;3.60;;
17850;SDS011;9051;51.548;14.348;2023-02-01T08:06:43;8.73;;;3.10;;
17850;SDS011;9051;51.548;14.348;2023-02-01T08:09:15;8.13;;;3.10;;
17850;SDS011;9051;51.548;14.348;2023-02-01T08:11:47;15.27;;;3.90;;
17850;SDS011;9051;51.548;14.348;2023-02-01T08:14:19;11.77;;;3.60;;
17850;SDS011;9051;51.548;14.348;2023-02-01T08:16:52;10.93;;;3.20;;
17850;SDS011;9051;51.548;14.348;2023-02-01T08:19:24;6.87;;;3.17;;
17850;SDS011;9051;51.548;14.348;2023-02-01T08:21:56;9.43;;;3.30;;
17850;SDS011;9051;51.548;14.348;2023-02-01T08:24:29;10.87;;;3.47;;
17850;SDS011;9051;51.548;14.348;2023-02-01T08:27:01;11.27;;;3.33;;
17850;SDS011;9051;51.548;14.348;2023-02-01T08:29:34;9.03;;;3.23;;
17850;SDS011;9051;51.548;14.348;2023-02-01T08:32:07;9.23;;;3.30;;
17850;SDS011;9051;51.548;14.348;2023-02-01T08:34:39;12.87;;;3.27;;
17850;SDS011;9051;51.548;14.348;2023-02-01T08:37:11;11.93;;;3.37;;
17850;SDS011;9051;51.548;14.348;2023-02-01T08:39:43;7.70;;;2.90;;
17850;SDS011;9051;51.548;14.348;2023-02-01T08:42:16;10.53;;;3.80;;
17850;SDS011;9051;51.548;14.348;2023-02-01T08:45:06;10.93;;;3.67;;
17850;SDS011;9051;51.548;14.348;2023-02-01T08:47:40;8.30;;;3.17;;
17850;SDS011;9051;51.548;14.348;2023-02-01T08:50:13;7.10;;;3.10;;
17850;SDS011;9051;51.548;14.348;2023-02-01T08:52:45;10.37;;;3.40;;
17850;SDS011;9051;51.548;14.348;2023-02-01T08:55:17;10.50;;;3.53;;
17850;SDS011;9051;51.548;14.348;2023-02-01T08:57:50;8.00;;;3.30;;
17850;SDS011;9051;51.548;14.348;2023-02-01T09:00:22;7.80;;;4.10;;
17850;SDS011;9051;51.548;14.348;2023-02-01T09:02:56;11.70;;;3.30;;
17850;SDS011;9051;51.548;14.348;2023-02-01T09:05:28;8.47;;;3.50;;
17850;SDS011;9051;51.548;14.348;2023-02-01T09:08:00;7.50;;;3.43;;
17850;SDS011;9051;51.548;14.348;2023-02-01T09:10:32;11.63;;;3.57;;
17850;SDS011;9051;51.548;14.348;2023-02-01T09:13:05;9.37;;;3.47;;
17850;SDS011;9051;51.548;14.348;2023-02-01T09:15:37;8.07;;;3.33;;
17850;SDS011;9051;51.548;14.348;2023-02-01T09:18:11;10.40;;;3.30;;
17850;SDS011;9051;51.548;14.348;2023-02-01T09:20:43;15.13;;;3.90;;
17850;SDS011;9051;51.548;14.348;2023-02-01T09:23:15;10.83;;;3.37;;
17850;SDS011;9051;51.548;14.348;2023-02-01T09:25:47;10.87;;;3.60;;
17850;SDS011;9051;51.548;14.348;2023-02-01T09:28:20;9.77;;;3.73;;
17850;SDS011;9051;51.548;14.348;2023-02-01T09:30:54;9.17;;;3.33;;
17850;SDS011;9051;51.548;14.348;2023-02-01T09:33:29;11.30;;;3.33;;
17850;SDS011;9051;51.548;14.348;2023-02-01T09:36:02;10.47;;;3.83;;
17850;SDS011;9051;51.548;14.348;2023-02-01T09:38:35;7.63;;;3.50;;
17850;SDS011;9051;51.548;14.348;2023-02-01T09:41:10;10.30;;;4.30;;
17850;SDS011;9051;51.548;14.348;2023-02-01T09:43:58;15.70;;;4.43;;
17850;SDS011;9051;51.548;14.348;2023-02-01T09:46:37;10.30;;;3.53;;
17850;SDS011;9051;51.548;14.348;2023-02-01T09:49:11;8.93;;;3.43;;
17850;SDS011;9051;51.548;14.348;2023-02-01T09:51:48;11.23;;;4.20;;
17850;SDS011;9051;51.548;14.348;2023-02-01T09:54:22;7.80;;;3.43;;
17850;SDS011;9051;51.548;14.348;2023-02-01T09:56:58;10.00;;;4.20;;
17850;SDS011;9051;51.548;14.348;2023-02-01T09:59:38;9.27;;;3.30;;
17850;SDS011;9051;51.548;14.348;2023-02-01T10:02:13;5.80;;;3.13;;
17850;SDS011;9051;51.548;14.348;2023-02-01T10:04:50;11.90;;;4.10;;
17850;SDS011;9051;51.548;14.348;2023-02-01T10:07:30;9.63;;;3.80;;
17850;SDS011;9051;51.548;14.348;2023-02-01T10:10:09;11.50;;;3.97;;
17850;SDS011;9051;51.548;14.348;2023-02-01T10:16:02;6.40;;;3.20;;
17850;SDS011;9051;51.548;14.348;2023-02-01T10:18:50;6.23;;;3.10;;
17850;SDS011;9051;51.548;14.348;2023-02-01T10:21:35;9.33;;;2.87;;
17850;SDS011;9051;51.548;14.348;2023-02-01T10:24:23;11.13;;;3.23;;
17850;SDS011;9051;51.548;14.348;2023-02-01T10:27:12;5.47;;;3.10;;
17850;SDS011;9051;51.548;14.348;2023-02-01T10:29:49;4.67;;;2.70;;
17850;SDS011;9051;51.548;14.348;2023-02-01T10:32:28;7.03;;;2.70;;
17850;SDS011;9051;51.548;14.348;2023-02-01T10:35:04;6.10;;;2.80;;
17850;SDS011;9051;51.548;14.348;2023-02-01T10:37:44;3.67;;;2.40;;
17850;SDS011;9051;51.548;14.348;2023-02-01T10:40:18;4.97;;;2.70;;
17850;SDS011;9051;51.548;14.348;2023-02-01T10:42:53;3.90;;;2.30;;
17850;SDS011;9051;51.548;14.348;2023-02-01T10:45:28;4.77;;;2.90;;
17850;SDS011;9051;51.548;14.348;2023-02-01T10:48:02;5.93;;;2.60;;
17850;SDS011;9051;51.548;14.348;2023-02-01T10:50:35;4.67;;;2.50;;
17850;SDS011;9051;51.548;14.348;2023-02-01T10:53:13;3.00;;;2.17;;
17850;SDS011;9051;51.548;14.348;2023-02-01T10:55:50;3.47;;;2.43;;
17850;SDS011;9051;51.548;14.348;2023-02-01T10:58:26;5.70;;;2.70;;
17850;SDS011;9051;51.548;14.348;2023-02-01T11:01:02;9.40;;;4.60;;
17850;SDS011;9051;51.548;14.348;2023-02-01T11:03:39;5.70;;;2.90;;
17850;SDS011;9051;51.548;14.348;2023-02-01T11:06:19;4.23;;;2.73;;
17850;SDS011;9051;51.548;14.348;2023-02-01T11:08:59;4.13;;;2.33;;
17850;SDS011;9051;51.548;14.348;2023-02-01T11:11:52;3.73;;;2.30;;
17850;SDS011;9051;51.548;14.348;2023-02-01T11:14:27;4.30;;;2.67;;
17850;SDS011;9051;51.548;14.348;2023-02-01T11:17:21;6.27;;;2.60;;
17850;SDS011;9051;51.548;14.348;2023-02-01T11:19:58;4.33;;;2.70;;
17850;SDS011;9051;51.548;14.348;2023-02-01T11:22:31;3.63;;;2.47;;
17850;SDS011;9051;51.548;14.348;2023-02-01T11:25:08;3.90;;;3.13;;
17850;SDS011;9051;51.548;14.348;2023-02-01T11:27:41;4.70;;;2.67;;
17850;SDS011;9051;51.548;14.348;2023-02-01T11:30:14;2.87;;;2.20;;
17850;SDS011;9051;51.548;14.348;2023-02-01T11:32:49;4.10;;;2.47;;
17850;SDS011;9051;51.548;14.348;2023-02-01T11:35:22;6.53;;;3.07;;
17850;SDS011;9051;51.548;14.348;2023-02-01T11:37:54;5.97;;;2.57;;
17850;SDS011;9051;51.548;14.348;2023-02-01T11:40:36;4.57;;;2.30;;
17850;SDS011;9051;51.548;14.348;2023-02-01T11:43:16;6.20;;;2.50;;
17850;SDS011;9051;51.548;14.348;2023-02-01T11:46:52;4.10;;;2.17;;
17850;SDS011;9051;51.548;14.348;2023-02-01T11:49:25;4.57;;;2.60;;
17850;SDS011;9051;51.548;14.348;2023-02-01T11:52:05;5.30;;;2.33;;
17850;SDS011;9051;51.548;14.348;2023-02-01T11:54:48;6.93;;;2.40;;
17850;SDS011;9051;51.548;14.348;2023-02-01T11:57:35;5.40;;;2.80;;
17850;SDS011;9051;51.548;14.348;2023-02-01T12:00:25;4.57;;;2.40;;
17850;SDS011;9051;51.548;14.348;2023-02-01T12:03:26;3.90;;;2.30;;
17850;SDS011;9051;51.548;14.348;2023-02-01T12:06:15;5.20;;;2.40;;
17850;SDS011;9051;51.548;14.348;2023-02-01T12:09:06;5.23;;;2.50;;
17850;SDS011;9051;51.548;14.348;2023-02-01T12:11:53;5.43;;;2.10;;
17850;SDS011;9051;51.548;14.348;2023-02-01T12:14:36;4.27;;;2.50;;
17850;SDS011;9051;51.548;14.348;2023-02-01T12:17:30;2.87;;;2.30;;
17850;SDS011;9051;51.548;14.348;2023-02-01T12:20:26;5.90;;;2.60;;
17850;SDS011;9051;51.548;14.348;2023-02-01T12:23:15;5.63;;;2.33;;
17850;SDS011;9051;51.548;14.348;2023-02-01T12:25:59;3.17;;;2.00;;
17850;SDS011;9051;51.548;14.348;2023-02-01T12:28:48;6.00;;;2.80;;
17850;SDS011;9051;51.548;14.348;2023-02-01T12:31:40;5.37;;;2.57;;
17850;SDS011;9051;51.548;14.348;2023-02-01T12:34:32;4.70;;;2.27;;
17850;SDS011;9051;51.548;14.348;2023-02-01T12:37:20;2.97;;;2.07;;
17850;SDS011;9051;51.548;14.348;2023-02-01T12:40:02;7.43;;;2.27;;
17850;SDS011;9051;51.548;14.348;2023-02-01T12:42:46;4.10;;;2.13;;
17850;SDS011;9051;51.548;14.348;2023-02-01T12:45:26;6.50;;;2.40;;
17850;SDS011;9051;51.548;14.348;2023-02-01T12:48:08;5.87;;;2.43;;
17850;SDS011;9051;51.548;14.348;2023-02-01T12:50:53;3.57;;;1.93;;
17850;SDS011;9051;51.548;14.348;2023-02-01T12:53:30;7.97;;;2.30;;
17850;SDS011;9051;51.548;14.348;2023-02-01T12:56:10;4.47;;;2.00;;
17850;SDS011;9051;51.548;14.348;2023-02-01T12:58:48;4.37;;;2.00;;
17850;SDS011;9051;51.548;14.348;2023-02-01T13:01:25;6.07;;;2.67;;
17850;SDS011;9051;51.548;14.348;2023-02-01T13:04:03;5.63;;;2.13;;
17850;SDS011;9051;51.548;14.348;2023-02-01T13:06:43;6.93;;;2.00;;
17850;SDS011;9051;51.548;14.348;2023-02-01T13:09:20;5.23;;;1.67;;
17850;SDS011;9051;51.548;14.348;2023-02-01T13:11:57;5.07;;;1.87;;
17850;SDS011;9051;51.548;14.348;2023-02-01T13:14:33;4.13;;;2.00;;
17850;SDS011;9051;51.548;14.348;2023-02-01T13:17:10;4.60;;;1.90;;
17850;SDS011;9051;51.548;14.348;2023-02-01T13:19:49;4.17;;;1.80;;
17850;SDS011;9051;51.548;14.348;2023-02-01T13:22:25;6.07;;;2.37;;
17850;SDS011;9051;51.548;14.348;2023-02-01T13:25:02;3.97;;;2.50;;
17850;SDS011;9051;51.548;14.348;2023-02-01T13:27:39;5.03;;;2.07;;
17850;SDS011;9051;51.548;14.348;2023-02-01T13:30:12;7.20;;;2.37;;
17850;SDS011;9051;51.548;14.348;2023-02-01T13:33:07;2.87;;;1.70;;
17850;SDS011;9051;51.548;14.348;2023-02-01T13:35:57;3.50;;;2.00;;
17850;SDS011;9051;51.548;14.348;2023-02-01T13:38:45;5.57;;;2.40;;
17850;SDS011;9051;51.548;14.348;2023-02-01T13:41:39;4.67;;;2.10;;
17850;SDS011;9051;51.548;14.348;2023-02-01T13:44:23;8.37;;;2.33;;
17850;SDS011;9051;51.548;14.348;2023-02-01T13:47:00;6.63;;;2.00;;
17850;SDS011;9051;51.548;14.348;2023-02-01T13:49:37;5.27;;;2.40;;
17850;SDS011;9051;51.548;14.348;2023-02-01T13:52:26;8.97;;;2.70;;
17850;SDS011;9051;51.548;14.348;2023-02-01T13:58:13;8.83;;;2.37;;
17850;SDS011;9051;51.548;14.348;2023-02-01T14:00:48;4.93;;;2.47;;
17850;SDS011;9051;51.548;14.348;2023-02-01T14:03:22;5.70;;;2.27;;
17850;SDS011;9051;51.548;14.348;2023-02-01T14:06:18;2.60;;;1.70;;
17850;SDS011;9051;51.548;14.348;2023-02-01T14:09:13;5.77;;;1.87;;
17850;SDS011;9051;51.548;14.348;2023-02-01T14:11:48;6.33;;;1.90;;
17850;SDS011;9051;51.548;14.348;2023-02-01T14:23:29;7.53;;;1.90;;
17850;SDS011;9051;51.548;14.348;2023-02-01T14:26:08;3.43;;;1.67;;
17850;SDS011;9051;51.548;14.348;2023-02-01T14:31:39;3.87;;;1.73;;
17850;SDS011;9051;51.548;14.348;2023-02-01T14:34:26;3.57;;;1.80;;
17850;SDS011;9051;51.548;14.348;2023-02-01T14:37:06;3.33;;;1.63;;
17850;SDS011;9051;51.548;14.348;2023-02-01T14:39:49;3.17;;;1.70;;
17850;SDS011;9051;51.548;14.348;2023-02-01T14:42:29;4.83;;;2.00;;
17850;SDS011;9051;51.548;14.348;2023-02-01T14:48:42;4.17;;;1.90;;
17850;SDS011;9051;51.548;14.348;2023-02-01T14:51:17;5.73;;;2.10;;
17850;SDS011;9051;51.548;14.348;2023-02-01T14:53:50;7.73;;;2.27;;
17850;SDS011;9051;51.548;14.348;2023-02-01T14:56:22;7.27;;;2.20;;
17850;SDS011;9051;51.548;14.348;2023-02-01T14:58:59;3.60;;;2.00;;
17850;SDS011;9051;51.548;14.348;2023-02-01T15:01:34;6.30;;;2.70;;
17850;SDS011;9051;51.548;14.348;2023-02-01T15:04:09;8.10;;;2.67;;
17850;SDS011;9051;51.548;14.348;2023-02-01T15:06:46;8.90;;;2.93;;
17850;SDS011;9051;51.548;14.348;2023-02-01T15:09:20;6.07;;;2.77;;
17850;SDS011;9051;51.548;14.348;2023-02-01T15:11:58;5.60;;;2.40;;
17850;SDS011;9051;51.548;14.348;2023-02-01T15:14:35;8.33;;;3.00;;
17850;SDS011;9051;51.548;14.348;2023-02-01T15:17:17;7.53;;;3.10;;
17850;SDS011;9051;51.548;14.348;2023-02-01T15:19:53;7.03;;;3.00;;
17850;SDS011;9051;51.548;14.348;2023-02-01T15:22:26;8.00;;;2.47;;
17850;SDS011;9051;51.548;14.348;2023-02-01T15:24:59;9.50;;;3.13;;
17850;SDS011;9051;51.548;14.348;2023-02-01T15:27:33;8.30;;;3.37;;
17850;SDS011;9051;51.548;14.348;2023-02-01T15:30:07;10.50;;;3.57;;
17850;SDS011;9051;51.548;14.348;2023-02-01T15:32:47;6.53;;;2.83;;
17850;SDS011;9051;51.548;14.348;2023-02-01T15:35:33;6.30;;;2.70;;
17850;SDS011;9051;51.548;14.348;2023-02-01T15:41:13;7.20;;;2.47;;
17850;SDS011;9051;51.548;14.348;2023-02-01T15:43:47;4.77;;;2.87;;
17850;SDS011;9051;51.548;14.348;2023-02-01T15:46:38;4.97;;;2.40;;
17850;SDS011;9051;51.548;14.348;2023-02-01T15:49:16;5.20;;;2.50;;
17850;SDS011;9051;51.548;14.348;2023-02-01T15:51:54;5.80;;;2.50;;
17850;SDS011;9051;51.548;14.348;2023-02-01T15:54:28;8.70;;;2.53;;
17850;SDS011;9051;51.548;14.348;2023-02-01T15:57:02;4.63;;;2.60;;
17850;SDS011;9051;51.548;14.348;2023-02-01T15:59:37;6.17;;;2.60;;
17850;SDS011;9051;51.548;14.348;2023-02-01T16:02:26;3.43;;;2.70;;
17850;SDS011;9051;51.548;14.348;2023-02-01T16:05:01;6.83;;;2.93;;
17850;SDS011;9051;51.548;14.348;2023-02-01T16:07:34;6.33;;;2.87;;
17850;SDS011;9051;51.548;14.348;2023-02-01T16:10:18;7.30;;;3.10;;
17850;SDS011;9051;51.548;14.348;2023-02-01T16:12:55;8.17;;;3.50;;
17850;SDS011;9051;51.548;14.348;2023-02-01T16:15:30;6.10;;;3.00;;